N247FP KSBY-KFFA
Flight info
| Callsign | N247FP |
|---|---|
| Flight time | N/A |
| Altitude | 6000 |
| Route | MAGGO T303 ORF/N0111F050 CANOB WAPLS 7NC2 |
| Aircraft | RV12/L-SFG/C |
Departure
| Time | 2026-05-07 21:17 |
|---|---|
| Airport | Salisbury Ocean City Wicomico Regional Airport (KSBY) |
Arrival
| Time | N/A |
|---|---|
| Airport | First Flight Airport (KFFA) |
| Time | Latitude | Longitude | Altitude | Speed | Heading |
|---|---|---|---|---|---|
| 2026-05-07 21:05 | 38.33769 | -75.51948 | 42 ft | 0 kts | 306° |
| 2026-05-07 21:11 | 38.33851 | -75.51891 | 43 ft | 23 kts | 38° |
| 2026-05-07 21:12 | 38.33992 | -75.51747 | 44 ft | 26 kts | 41° |
| 2026-05-07 21:12 | 38.34124 | -75.51623 | 45 ft | 15 kts | 41° |
| 2026-05-07 21:12 | 38.34167 | -75.51572 | 45 ft | 9 kts | 47° |
| 2026-05-07 21:12 | 38.34238 | -75.51499 | 45 ft | 7 kts | 41° |
| 2026-05-07 21:13 | 38.34259 | -75.51462 | 45 ft | 10 kts | 68° |
| 2026-05-07 21:13 | 38.34276 | -75.51319 | 45 ft | 23 kts | 87° |
| 2026-05-07 21:13 | 38.34292 | -75.51191 | 45 ft | 16 kts | 77° |
| 2026-05-07 21:13 | 38.34392 | -75.51052 | 45 ft | 24 kts | 40° |
| 2026-05-07 21:14 | 38.34530 | -75.50926 | 45 ft | 19 kts | 36° |
| 2026-05-07 21:14 | 38.34574 | -75.50804 | 46 ft | 14 kts | 114° |
| 2026-05-07 21:14 | 38.34566 | -75.50788 | 46 ft | 0 kts | 124° |
| 2026-05-07 21:15 | 38.34560 | -75.50777 | 46 ft | 7 kts | 125° |
| 2026-05-07 21:15 | 38.34508 | -75.50693 | 46 ft | 9 kts | 135° |
| 2026-05-07 21:16 | 38.34449 | -75.50692 | 46 ft | 1 kts | 218° |
| 2026-05-07 21:16 | 38.34394 | -75.50742 | 46 ft | 34 kts | 214° |
| 2026-05-07 21:16 | 38.34099 | -75.51011 | 102 ft | 63 kts | 218° |
| 2026-05-07 21:16 | 38.33738 | -75.51383 | 271 ft | 64 kts | 213° |
| 2026-05-07 21:17 | 38.33365 | -75.51770 | 530 ft | 73 kts | 218° |
| 2026-05-07 21:17 | 38.32952 | -75.52242 | 753 ft | 86 kts | 222° |
| 2026-05-07 21:17 | 38.32503 | -75.52767 | 993 ft | 91 kts | 224° |
| 2026-05-07 21:17 | 38.31997 | -75.53317 | 1186 ft | 99 kts | 218° |
| 2026-05-07 21:18 | 38.31551 | -75.53949 | 1409 ft | 97 kts | 252° |
| 2026-05-07 21:18 | 38.31435 | -75.54785 | 1605 ft | 97 kts | 270° |
| 2026-05-07 21:18 | 38.31426 | -75.55640 | 1798 ft | 96 kts | 284° |
| 2026-05-07 21:18 | 38.31251 | -75.56450 | 2003 ft | 106 kts | 223° |
| 2026-05-07 21:19 | 38.30556 | -75.56798 | 2188 ft | 108 kts | 184° |
| 2026-05-07 21:19 | 38.29891 | -75.56458 | 2354 ft | 104 kts | 124° |
| 2026-05-07 21:19 | 38.29506 | -75.55685 | 2528 ft | 103 kts | 111° |
| 2026-05-07 21:19 | 38.29019 | -75.54986 | 2703 ft | 107 kts | 133° |
| 2026-05-07 21:20 | 38.28440 | -75.54365 | 2878 ft | 109 kts | 128° |
| 2026-05-07 21:20 | 38.27921 | -75.53663 | 3047 ft | 107 kts | 115° |
| 2026-05-07 21:20 | 38.27299 | -75.53119 | 3219 ft | 113 kts | 157° |
| 2026-05-07 21:20 | 38.26524 | -75.52910 | 3377 ft | 114 kts | 167° |
| 2026-05-07 21:21 | 38.25768 | -75.52620 | 3527 ft | 113 kts | 163° |
| 2026-05-07 21:21 | 38.25000 | -75.52682 | 3665 ft | 111 kts | 206° |
| 2026-05-07 21:21 | 38.24296 | -75.53076 | 3830 ft | 109 kts | 210° |
| 2026-05-07 21:21 | 38.23587 | -75.53393 | 4020 ft | 107 kts | 203° |
| 2026-05-07 21:22 | 38.22940 | -75.53741 | 4215 ft | 98 kts | 227° |
| 2026-05-07 21:22 | 38.22563 | -75.54452 | 4232 ft | 98 kts | 257° |
| 2026-05-07 21:22 | 38.22366 | -75.55275 | 4288 ft | 96 kts | 263° |
| 2026-05-07 21:22 | 38.22172 | -75.56082 | 4362 ft | 95 kts | 259° |
| 2026-05-07 21:23 | 38.21975 | -75.56882 | 4436 ft | 93 kts | 260° |
| 2026-05-07 21:23 | 38.21775 | -75.57671 | 4468 ft | 96 kts | 259° |
| 2026-05-07 21:23 | 38.21313 | -75.58381 | 4302 ft | 124 kts | 203° |
| 2026-05-07 21:23 | 38.20448 | -75.58120 | 4074 ft | 131 kts | 166° |
| 2026-05-07 21:24 | 38.19572 | -75.58033 | 4021 ft | 122 kts | 188° |
| 2026-05-07 21:24 | 38.18802 | -75.58235 | 4135 ft | 107 kts | 215° |
| 2026-05-07 21:24 | 38.18321 | -75.58878 | 4223 ft | 98 kts | 243° |
| 2026-05-07 21:24 | 38.17941 | -75.59597 | 4294 ft | 98 kts | 245° |
| 2026-05-07 21:25 | 38.17551 | -75.60312 | 4355 ft | 99 kts | 240° |
| 2026-05-07 21:25 | 38.17075 | -75.60962 | 4411 ft | 102 kts | 230° |
| 2026-05-07 21:25 | 38.16513 | -75.61555 | 4417 ft | 108 kts | 223° |
| 2026-05-07 21:25 | 38.15881 | -75.62109 | 4386 ft | 112 kts | 219° |
| 2026-05-07 21:26 | 38.15209 | -75.62633 | 4326 ft | 114 kts | 216° |
| 2026-05-07 21:26 | 38.14515 | -75.63127 | 4270 ft | 115 kts | 214° |
| 2026-05-07 21:26 | 38.13786 | -75.63623 | 4112 ft | 122 kts | 214° |
| 2026-05-07 21:26 | 38.13024 | -75.64124 | 4006 ft | 125 kts | 212° |
| 2026-05-07 21:27 | 38.12254 | -75.64619 | 3996 ft | 124 kts | 212° |
| 2026-05-07 21:27 | 38.11487 | -75.65105 | 4004 ft | 122 kts | 212° |
| 2026-05-07 21:27 | 38.10723 | -75.65589 | 3995 ft | 123 kts | 212° |
| 2026-05-07 21:27 | 38.09958 | -75.66068 | 3982 ft | 121 kts | 212° |
| 2026-05-07 21:28 | 38.09198 | -75.66547 | 3995 ft | 121 kts | 211° |
| 2026-05-07 21:28 | 38.08434 | -75.67026 | 4002 ft | 123 kts | 211° |
| 2026-05-07 21:28 | 38.07665 | -75.67506 | 3994 ft | 122 kts | 211° |
| 2026-05-07 21:28 | 38.06864 | -75.67924 | 3952 ft | 128 kts | 197° |
| 2026-05-07 21:29 | 38.05989 | -75.68257 | 3708 ft | 132 kts | 209° |
| 2026-05-07 21:29 | 38.05134 | -75.68793 | 3314 ft | 141 kts | 210° |
| 2026-05-07 21:29 | 38.04263 | -75.69367 | 2985 ft | 138 kts | 208° |
| 2026-05-07 21:29 | 38.04154 | -75.69427 | 2958 ft | 138 kts | 204° |